sensor_id;sensor_type;location;lat;lon;timestamp;P1;durP1;ratioP1;P2;durP2;ratioP2
55268;SDS011;41131;42.990;21.954;2022-10-16T00:01:52;62.13;;;42.67;;
55268;SDS011;41131;42.990;21.954;2022-10-16T00:04:18;57.65;;;38.70;;
55268;SDS011;41131;42.990;21.954;2022-10-16T00:06:44;58.53;;;40.13;;
55268;SDS011;41131;42.990;21.954;2022-10-16T00:09:11;54.97;;;41.33;;
55268;SDS011;41131;42.990;21.954;2022-10-16T00:11:37;69.82;;;47.67;;
55268;SDS011;41131;42.990;21.954;2022-10-16T00:14:05;68.95;;;51.13;;
55268;SDS011;41131;42.990;21.954;2022-10-16T00:16:31;62.05;;;42.95;;
55268;SDS011;41131;42.990;21.954;2022-10-16T00:18:57;57.00;;;41.10;;
55268;SDS011;41131;42.990;21.954;2022-10-16T00:21:24;50.08;;;35.97;;
55268;SDS011;41131;42.990;21.954;2022-10-16T00:23:51;50.33;;;33.20;;
55268;SDS011;41131;42.990;21.954;2022-10-16T00:26:18;48.60;;;34.42;;
55268;SDS011;41131;42.990;21.954;2022-10-16T00:28:47;50.05;;;32.25;;
55268;SDS011;41131;42.990;21.954;2022-10-16T00:31:14;56.60;;;37.20;;
55268;SDS011;41131;42.990;21.954;2022-10-16T00:33:41;39.60;;;27.27;;
55268;SDS011;41131;42.990;21.954;2022-10-16T00:36:08;42.65;;;26.38;;
55268;SDS011;41131;42.990;21.954;2022-10-16T00:38:35;47.28;;;25.10;;
55268;SDS011;41131;42.990;21.954;2022-10-16T00:41:02;33.25;;;24.17;;
55268;SDS011;41131;42.990;21.954;2022-10-16T00:43:44;45.15;;;27.38;;
55268;SDS011;41131;42.990;21.954;2022-10-16T00:48:37;35.33;;;23.15;;
55268;SDS011;41131;42.990;21.954;2022-10-16T00:51:03;30.38;;;20.33;;
55268;SDS011;41131;42.990;21.954;2022-10-16T00:53:30;31.55;;;21.00;;
55268;SDS011;41131;42.990;21.954;2022-10-16T00:55:56;31.48;;;20.35;;
55268;SDS011;41131;42.990;21.954;2022-10-16T00:58:22;28.33;;;20.55;;
55268;SDS011;41131;42.990;21.954;2022-10-16T01:00:48;32.72;;;22.77;;
55268;SDS011;41131;42.990;21.954;2022-10-16T01:03:25;37.65;;;22.25;;
55268;SDS011;41131;42.990;21.954;2022-10-16T01:06:18;34.13;;;22.20;;
55268;SDS011;41131;42.990;21.954;2022-10-16T01:13:49;31.75;;;20.02;;
55268;SDS011;41131;42.990;21.954;2022-10-16T01:16:22;28.42;;;17.73;;
55268;SDS011;41131;42.990;21.954;2022-10-16T01:18:51;28.45;;;16.67;;
55268;SDS011;41131;42.990;21.954;2022-10-16T01:21:24;22.95;;;16.92;;
55268;SDS011;41131;42.990;21.954;2022-10-16T01:28:55;24.23;;;14.73;;
55268;SDS011;41131;42.990;21.954;2022-10-16T01:31:25;19.35;;;14.98;;
55268;SDS011;41131;42.990;21.954;2022-10-16T01:36:39;26.20;;;18.75;;
55268;SDS011;41131;42.990;21.954;2022-10-16T01:39:07;24.70;;;16.67;;
55268;SDS011;41131;42.990;21.954;2022-10-16T01:41:36;18.98;;;14.23;;
55268;SDS011;41131;42.990;21.954;2022-10-16T01:46:30;24.05;;;14.90;;
55268;SDS011;41131;42.990;21.954;2022-10-16T01:48:56;18.90;;;14.02;;
55268;SDS011;41131;42.990;21.954;2022-10-16T01:51:23;21.35;;;15.10;;
55268;SDS011;41131;42.990;21.954;2022-10-16T01:53:54;22.95;;;14.50;;
55268;SDS011;41131;42.990;21.954;2022-10-16T01:56:21;20.77;;;14.45;;
55268;SDS011;41131;42.990;21.954;2022-10-16T01:58:49;26.23;;;15.45;;
55268;SDS011;41131;42.990;21.954;2022-10-16T02:01:17;26.73;;;15.77;;
55268;SDS011;41131;42.990;21.954;2022-10-16T02:03:44;25.17;;;15.95;;
55268;SDS011;41131;42.990;21.954;2022-10-16T02:06:12;24.98;;;15.98;;
55268;SDS011;41131;42.990;21.954;2022-10-16T02:08:38;18.83;;;14.70;;
55268;SDS011;41131;42.990;21.954;2022-10-16T02:11:09;25.70;;;15.45;;
55268;SDS011;41131;42.990;21.954;2022-10-16T02:13:39;23.77;;;16.40;;
55268;SDS011;41131;42.990;21.954;2022-10-16T02:16:07;26.15;;;16.33;;
55268;SDS011;41131;42.990;21.954;2022-10-16T02:18:33;25.17;;;16.45;;
55268;SDS011;41131;42.990;21.954;2022-10-16T02:21:00;21.67;;;15.38;;
55268;SDS011;41131;42.990;21.954;2022-10-16T02:25:56;27.30;;;18.65;;
55268;SDS011;41131;42.990;21.954;2022-10-16T02:28:26;32.50;;;21.05;;
55268;SDS011;41131;42.990;21.954;2022-10-16T02:30:58;32.08;;;21.48;;
55268;SDS011;41131;42.990;21.954;2022-10-16T02:33:25;26.98;;;17.55;;
55268;SDS011;41131;42.990;21.954;2022-10-16T02:35:52;25.67;;;16.52;;
55268;SDS011;41131;42.990;21.954;2022-10-16T02:38:19;28.55;;;17.90;;
55268;SDS011;41131;42.990;21.954;2022-10-16T02:40:46;31.35;;;19.48;;
55268;SDS011;41131;42.990;21.954;2022-10-16T02:43:12;32.47;;;22.27;;
55268;SDS011;41131;42.990;21.954;2022-10-16T02:45:38;32.95;;;21.88;;
55268;SDS011;41131;42.990;21.954;2022-10-16T02:48:04;35.13;;;24.00;;
55268;SDS011;41131;42.990;21.954;2022-10-16T02:50:30;37.85;;;24.38;;
55268;SDS011;41131;42.990;21.954;2022-10-16T02:52:56;31.95;;;20.10;;
55268;SDS011;41131;42.990;21.954;2022-10-16T02:55:23;28.33;;;17.55;;
55268;SDS011;41131;42.990;21.954;2022-10-16T02:57:49;24.13;;;16.30;;
55268;SDS011;41131;42.990;21.954;2022-10-16T03:00:15;28.45;;;18.05;;
55268;SDS011;41131;42.990;21.954;2022-10-16T03:02:42;26.98;;;17.23;;
55268;SDS011;41131;42.990;21.954;2022-10-16T03:05:09;30.25;;;18.65;;
55268;SDS011;41131;42.990;21.954;2022-10-16T03:07:35;33.47;;;20.33;;
55268;SDS011;41131;42.990;21.954;2022-10-16T03:10:01;34.08;;;20.23;;
55268;SDS011;41131;42.990;21.954;2022-10-16T03:12:28;30.50;;;18.10;;
55268;SDS011;41131;42.990;21.954;2022-10-16T03:14:55;28.45;;;18.15;;
55268;SDS011;41131;42.990;21.954;2022-10-16T03:17:22;26.20;;;16.25;;
55268;SDS011;41131;42.990;21.954;2022-10-16T03:19:48;19.67;;;14.60;;
55268;SDS011;41131;42.990;21.954;2022-10-16T03:22:14;30.42;;;20.10;;
55268;SDS011;41131;42.990;21.954;2022-10-16T03:24:40;37.33;;;24.45;;
55268;SDS011;41131;42.990;21.954;2022-10-16T03:27:06;30.45;;;21.05;;
55268;SDS011;41131;42.990;21.954;2022-10-16T03:29:32;30.65;;;20.98;;
55268;SDS011;41131;42.990;21.954;2022-10-16T03:31:59;25.10;;;17.02;;
55268;SDS011;41131;42.990;21.954;2022-10-16T03:34:25;29.10;;;18.98;;
55268;SDS011;41131;42.990;21.954;2022-10-16T03:36:51;27.45;;;18.73;;
55268;SDS011;41131;42.990;21.954;2022-10-16T03:39:17;37.45;;;22.20;;
55268;SDS011;41131;42.990;21.954;2022-10-16T03:41:43;27.20;;;18.40;;
55268;SDS011;41131;42.990;21.954;2022-10-16T03:44:11;27.48;;;19.70;;
55268;SDS011;41131;42.990;21.954;2022-10-16T03:46:37;24.95;;;19.35;;
55268;SDS011;41131;42.990;21.954;2022-10-16T03:49:03;30.00;;;22.23;;
55268;SDS011;41131;42.990;21.954;2022-10-16T03:51:29;40.08;;;25.17;;
55268;SDS011;41131;42.990;21.954;2022-10-16T03:53:55;28.27;;;18.77;;
55268;SDS011;41131;42.990;21.954;2022-10-16T03:56:21;27.10;;;18.30;;
55268;SDS011;41131;42.990;21.954;2022-10-16T03:58:47;33.83;;;19.15;;
55268;SDS011;41131;42.990;21.954;2022-10-16T04:01:14;28.42;;;18.52;;
55268;SDS011;41131;42.990;21.954;2022-10-16T04:03:40;34.00;;;19.75;;
55268;SDS011;41131;42.990;21.954;2022-10-16T04:06:06;30.83;;;18.95;;
55268;SDS011;41131;42.990;21.954;2022-10-16T04:08:32;29.90;;;17.60;;
55268;SDS011;41131;42.990;21.954;2022-10-16T04:11:00;23.40;;;16.60;;
55268;SDS011;41131;42.990;21.954;2022-10-16T04:13:26;30.02;;;20.98;;
55268;SDS011;41131;42.990;21.954;2022-10-16T04:15:52;25.98;;;16.65;;
55268;SDS011;41131;42.990;21.954;2022-10-16T04:18:18;28.30;;;17.85;;
55268;SDS011;41131;42.990;21.954;2022-10-16T04:20:44;26.60;;;18.83;;
55268;SDS011;41131;42.990;21.954;2022-10-16T04:23:10;29.00;;;19.85;;
55268;SDS011;41131;42.990;21.954;2022-10-16T04:25:36;45.80;;;28.45;;
55268;SDS011;41131;42.990;21.954;2022-10-16T04:28:02;44.33;;;32.22;;
55268;SDS011;41131;42.990;21.954;2022-10-16T04:30:29;40.15;;;27.98;;
55268;SDS011;41131;42.990;21.954;2022-10-16T04:32:55;40.75;;;26.42;;
55268;SDS011;41131;42.990;21.954;2022-10-16T04:35:21;28.63;;;17.35;;
55268;SDS011;41131;42.990;21.954;2022-10-16T04:37:47;30.38;;;17.13;;
55268;SDS011;41131;42.990;21.954;2022-10-16T04:40:13;28.40;;;16.45;;
55268;SDS011;41131;42.990;21.954;2022-10-16T04:42:40;27.50;;;17.80;;
55268;SDS011;41131;42.990;21.954;2022-10-16T04:45:06;27.88;;;18.25;;
55268;SDS011;41131;42.990;21.954;2022-10-16T04:47:33;26.27;;;16.73;;
55268;SDS011;41131;42.990;21.954;2022-10-16T04:49:59;25.73;;;16.15;;
55268;SDS011;41131;42.990;21.954;2022-10-16T04:52:27;27.02;;;16.83;;
55268;SDS011;41131;42.990;21.954;2022-10-16T04:54:53;31.42;;;18.98;;
55268;SDS011;41131;42.990;21.954;2022-10-16T04:57:21;31.40;;;21.48;;
55268;SDS011;41131;42.990;21.954;2022-10-16T04:59:47;31.48;;;21.45;;
55268;SDS011;41131;42.990;21.954;2022-10-16T05:02:13;33.67;;;21.10;;
55268;SDS011;41131;42.990;21.954;2022-10-16T05:04:39;29.63;;;20.38;;
55268;SDS011;41131;42.990;21.954;2022-10-16T05:07:05;30.80;;;21.80;;
55268;SDS011;41131;42.990;21.954;2022-10-16T05:09:31;37.42;;;24.02;;
55268;SDS011;41131;42.990;21.954;2022-10-16T05:11:57;28.00;;;21.35;;
55268;SDS011;41131;42.990;21.954;2022-10-16T05:14:23;28.52;;;18.85;;
55268;SDS011;41131;42.990;21.954;2022-10-16T05:16:49;26.70;;;19.70;;
55268;SDS011;41131;42.990;21.954;2022-10-16T05:19:16;33.00;;;20.17;;
55268;SDS011;41131;42.990;21.954;2022-10-16T05:21:42;30.10;;;19.75;;
55268;SDS011;41131;42.990;21.954;2022-10-16T05:24:08;28.42;;;20.25;;
55268;SDS011;41131;42.990;21.954;2022-10-16T05:26:34;30.77;;;21.20;;
55268;SDS011;41131;42.990;21.954;2022-10-16T05:29:00;63.13;;;39.53;;
55268;SDS011;41131;42.990;21.954;2022-10-16T05:31:27;51.20;;;36.40;;
55268;SDS011;41131;42.990;21.954;2022-10-16T05:33:57;38.53;;;28.63;;
55268;SDS011;41131;42.990;21.954;2022-10-16T05:36:23;34.53;;;24.60;;
55268;SDS011;41131;42.990;21.954;2022-10-16T05:38:50;32.88;;;21.27;;
55268;SDS011;41131;42.990;21.954;2022-10-16T05:41:16;37.20;;;22.40;;
55268;SDS011;41131;42.990;21.954;2022-10-16T05:43:46;34.42;;;24.38;;
55268;SDS011;41131;42.990;21.954;2022-10-16T05:46:12;39.22;;;23.52;;
55268;SDS011;41131;42.990;21.954;2022-10-16T05:48:38;42.13;;;27.40;;
55268;SDS011;41131;42.990;21.954;2022-10-16T05:51:06;26.73;;;17.90;;
55268;SDS011;41131;42.990;21.954;2022-10-16T05:53:33;29.60;;;21.13;;
55268;SDS011;41131;42.990;21.954;2022-10-16T05:56:00;27.08;;;20.88;;
55268;SDS011;41131;42.990;21.954;2022-10-16T05:58:30;30.95;;;22.05;;
55268;SDS011;41131;42.990;21.954;2022-10-16T06:00:57;29.40;;;20.90;;
55268;SDS011;41131;42.990;21.954;2022-10-16T06:03:24;24.65;;;18.48;;
55268;SDS011;41131;42.990;21.954;2022-10-16T06:05:50;23.55;;;18.83;;
55268;SDS011;41131;42.990;21.954;2022-10-16T06:08:17;29.92;;;21.40;;
55268;SDS011;41131;42.990;21.954;2022-10-16T06:10:43;27.13;;;22.65;;
55268;SDS011;41131;42.990;21.954;2022-10-16T06:13:10;31.85;;;23.45;;
55268;SDS011;41131;42.990;21.954;2022-10-16T06:15:36;40.20;;;27.70;;
55268;SDS011;41131;42.990;21.954;2022-10-16T06:18:03;39.97;;;27.15;;
55268;SDS011;41131;42.990;21.954;2022-10-16T06:20:30;39.33;;;26.95;;
55268;SDS011;41131;42.990;21.954;2022-10-16T06:22:56;40.33;;;30.13;;
55268;SDS011;41131;42.990;21.954;2022-10-16T06:25:23;53.35;;;36.63;;
55268;SDS011;41131;42.990;21.954;2022-10-16T06:27:49;50.90;;;39.70;;
55268;SDS011;41131;42.990;21.954;2022-10-16T06:30:15;49.67;;;33.33;;
55268;SDS011;41131;42.990;21.954;2022-10-16T06:32:41;39.38;;;29.10;;
55268;SDS011;41131;42.990;21.954;2022-10-16T06:35:07;37.58;;;27.70;;
55268;SDS011;41131;42.990;21.954;2022-10-16T06:37:33;37.42;;;27.95;;
55268;SDS011;41131;42.990;21.954;2022-10-16T06:39:59;37.60;;;28.42;;
55268;SDS011;41131;42.990;21.954;2022-10-16T06:42:25;39.42;;;27.13;;
55268;SDS011;41131;42.990;21.954;2022-10-16T06:44:51;38.05;;;26.40;;
55268;SDS011;41131;42.990;21.954;2022-10-16T06:47:18;38.47;;;26.70;;
55268;SDS011;41131;42.990;21.954;2022-10-16T06:49:44;37.72;;;27.48;;
55268;SDS011;41131;42.990;21.954;2022-10-16T06:52:10;39.05;;;27.40;;
55268;SDS011;41131;42.990;21.954;2022-10-16T06:54:36;37.97;;;26.67;;
55268;SDS011;41131;42.990;21.954;2022-10-16T06:57:02;34.80;;;26.23;;
55268;SDS011;41131;42.990;21.954;2022-10-16T06:59:28;30.88;;;22.27;;
55268;SDS011;41131;42.990;21.954;2022-10-16T07:01:54;32.45;;;23.55;;
55268;SDS011;41131;42.990;21.954;2022-10-16T07:04:20;60.08;;;43.42;;
55268;SDS011;41131;42.990;21.954;2022-10-16T07:06:46;70.35;;;49.35;;
55268;SDS011;41131;42.990;21.954;2022-10-16T07:09:12;32.38;;;22.30;;
55268;SDS011;41131;42.990;21.954;2022-10-16T07:11:39;27.83;;;21.30;;
55268;SDS011;41131;42.990;21.954;2022-10-16T07:14:10;34.78;;;23.75;;
55268;SDS011;41131;42.990;21.954;2022-10-16T07:16:38;55.53;;;39.65;;
55268;SDS011;41131;42.990;21.954;2022-10-16T07:19:04;28.95;;;23.50;;
55268;SDS011;41131;42.990;21.954;2022-10-16T07:21:31;32.10;;;22.95;;
55268;SDS011;41131;42.990;21.954;2022-10-16T07:24:00;39.22;;;27.38;;
55268;SDS011;41131;42.990;21.954;2022-10-16T07:26:27;39.80;;;30.15;;
55268;SDS011;41131;42.990;21.954;2022-10-16T07:28:55;36.22;;;28.50;;
55268;SDS011;41131;42.990;21.954;2022-10-16T07:31:22;41.00;;;30.80;;
55268;SDS011;41131;42.990;21.954;2022-10-16T07:33:48;36.75;;;29.77;;
55268;SDS011;41131;42.990;21.954;2022-10-16T07:36:15;29.30;;;23.50;;
55268;SDS011;41131;42.990;21.954;2022-10-16T07:38:42;38.33;;;28.27;;
55268;SDS011;41131;42.990;21.954;2022-10-16T07:41:18;193.75;;;148.02;;
55268;SDS011;41131;42.990;21.954;2022-10-16T07:43:48;42.05;;;29.38;;
55268;SDS011;41131;42.990;21.954;2022-10-16T07:46:14;33.63;;;27.63;;
55268;SDS011;41131;42.990;21.954;2022-10-16T07:48:41;43.20;;;29.73;;
55268;SDS011;41131;42.990;21.954;2022-10-16T07:51:10;33.70;;;25.45;;
55268;SDS011;41131;42.990;21.954;2022-10-16T07:53:37;34.45;;;26.73;;
55268;SDS011;41131;42.990;21.954;2022-10-16T07:56:04;32.50;;;25.60;;
55268;SDS011;41131;42.990;21.954;2022-10-16T07:58:31;35.88;;;29.00;;
55268;SDS011;41131;42.990;21.954;2022-10-16T08:00:58;38.72;;;25.30;;
55268;SDS011;41131;42.990;21.954;2022-10-16T08:03:24;36.30;;;28.15;;
55268;SDS011;41131;42.990;21.954;2022-10-16T08:05:51;48.10;;;34.22;;
55268;SDS011;41131;42.990;21.954;2022-10-16T08:08:17;36.70;;;26.20;;
55268;SDS011;41131;42.990;21.954;2022-10-16T08:10:44;30.58;;;23.88;;
55268;SDS011;41131;42.990;21.954;2022-10-16T08:13:10;37.50;;;26.50;;
55268;SDS011;41131;42.990;21.954;2022-10-16T08:15:37;35.22;;;26.10;;
55268;SDS011;41131;42.990;21.954;2022-10-16T08:18:04;44.53;;;32.70;;
55268;SDS011;41131;42.990;21.954;2022-10-16T08:20:33;41.90;;;28.92;;
55268;SDS011;41131;42.990;21.954;2022-10-16T08:22:59;37.08;;;27.75;;
55268;SDS011;41131;42.990;21.954;2022-10-16T08:25:26;40.63;;;31.25;;
55268;SDS011;41131;42.990;21.954;2022-10-16T08:27:52;42.47;;;30.75;;
55268;SDS011;41131;42.990;21.954;2022-10-16T08:30:19;40.85;;;31.60;;
55268;SDS011;41131;42.990;21.954;2022-10-16T08:32:45;37.85;;;29.10;;
55268;SDS011;41131;42.990;21.954;2022-10-16T08:35:12;39.35;;;30.17;;
55268;SDS011;41131;42.990;21.954;2022-10-16T08:37:39;42.47;;;31.90;;
55268;SDS011;41131;42.990;21.954;2022-10-16T08:40:05;48.08;;;30.48;;
55268;SDS011;41131;42.990;21.954;2022-10-16T08:47:35;29.95;;;23.42;;
55268;SDS011;41131;42.990;21.954;2022-10-16T08:50:09;31.08;;;22.00;;
55268;SDS011;41131;42.990;21.954;2022-10-16T08:52:38;27.98;;;20.15;;
55268;SDS011;41131;42.990;21.954;2022-10-16T08:55:05;22.63;;;17.75;;
55268;SDS011;41131;42.990;21.954;2022-10-16T08:57:31;28.17;;;19.73;;
55268;SDS011;41131;42.990;21.954;2022-10-16T08:59:59;27.30;;;21.23;;
55268;SDS011;41131;42.990;21.954;2022-10-16T09:02:32;28.35;;;20.50;;
55268;SDS011;41131;42.990;21.954;2022-10-16T09:07:38;21.02;;;15.75;;
55268;SDS011;41131;42.990;21.954;2022-10-16T09:12:53;26.60;;;21.08;;
55268;SDS011;41131;42.990;21.954;2022-10-16T09:27:55;36.05;;;29.58;;
55268;SDS011;41131;42.990;21.954;2022-10-16T09:30:29;34.15;;;21.15;;
55268;SDS011;41131;42.990;21.954;2022-10-16T09:32:55;23.00;;;17.95;;
55268;SDS011;41131;42.990;21.954;2022-10-16T09:35:26;35.28;;;28.85;;
55268;SDS011;41131;42.990;21.954;2022-10-16T09:37:54;27.08;;;22.42;;
55268;SDS011;41131;42.990;21.954;2022-10-16T09:45:41;16.80;;;12.27;;
55268;SDS011;41131;42.990;21.954;2022-10-16T09:48:10;33.35;;;29.92;;
55268;SDS011;41131;42.990;21.954;2022-10-16T09:50:37;32.35;;;27.50;;
55268;SDS011;41131;42.990;21.954;2022-10-16T09:53:13;22.02;;;15.63;;
55268;SDS011;41131;42.990;21.954;2022-10-16T09:55:49;25.30;;;19.75;;
55268;SDS011;41131;42.990;21.954;2022-10-16T09:58:15;29.35;;;21.17;;
55268;SDS011;41131;42.990;21.954;2022-10-16T10:00:42;21.75;;;19.45;;
55268;SDS011;41131;42.990;21.954;2022-10-16T10:03:19;20.63;;;16.30;;
55268;SDS011;41131;42.990;21.954;2022-10-16T10:05:51;18.60;;;14.93;;
55268;SDS011;41131;42.990;21.954;2022-10-16T10:08:17;18.15;;;14.15;;
55268;SDS011;41131;42.990;21.954;2022-10-16T10:10:44;23.40;;;14.57;;
55268;SDS011;41131;42.990;21.954;2022-10-16T10:13:17;16.85;;;13.73;;
55268;SDS011;41131;42.990;21.954;2022-10-16T10:15:43;22.17;;;14.20;;
55268;SDS011;41131;42.990;21.954;2022-10-16T10:18:16;24.08;;;13.20;;
55268;SDS011;41131;42.990;21.954;2022-10-16T10:20:43;20.15;;;13.30;;
55268;SDS011;41131;42.990;21.954;2022-10-16T10:26:06;18.38;;;12.57;;
55268;SDS011;41131;42.990;21.954;2022-10-16T10:29:25;19.90;;;12.90;;
55268;SDS011;41131;42.990;21.954;2022-10-16T10:31:26;28.55;;;13.40;;
55268;SDS011;41131;42.990;21.954;2022-10-16T10:36:32;16.00;;;12.30;;
55268;SDS011;41131;42.990;21.954;2022-10-16T10:39:08;18.25;;;12.48;;
55268;SDS011;41131;42.990;21.954;2022-10-16T10:59:58;27.98;;;16.27;;
55268;SDS011;41131;42.990;21.954;2022-10-16T11:02:29;18.38;;;14.07;;
55268;SDS011;41131;42.990;21.954;2022-10-16T11:05:15;17.42;;;12.93;;
55268;SDS011;41131;42.990;21.954;2022-10-16T11:10:15;32.15;;;20.60;;
55268;SDS011;41131;42.990;21.954;2022-10-16T11:12:42;28.35;;;19.98;;
55268;SDS011;41131;42.990;21.954;2022-10-16T11:15:27;27.33;;;16.20;;
55268;SDS011;41131;42.990;21.954;2022-10-16T11:20:23;19.55;;;12.25;;
55268;SDS011;41131;42.990;21.954;2022-10-16T11:22:51;21.90;;;15.73;;
55268;SDS011;41131;42.990;21.954;2022-10-16T11:27:56;14.40;;;12.45;;
55268;SDS011;41131;42.990;21.954;2022-10-16T11:30:27;17.80;;;10.95;;
55268;SDS011;41131;42.990;21.954;2022-10-16T11:35:32;19.23;;;14.80;;
55268;SDS011;41131;42.990;21.954;2022-10-16T11:37:59;24.95;;;12.23;;
55268;SDS011;41131;42.990;21.954;2022-10-16T11:40:29;19.88;;;11.55;;
55268;SDS011;41131;42.990;21.954;2022-10-16T11:43:01;21.63;;;15.27;;
55268;SDS011;41131;42.990;21.954;2022-10-16T11:45:33;23.60;;;10.93;;
55268;SDS011;41131;42.990;21.954;2022-10-16T11:48:02;18.48;;;15.18;;
55268;SDS011;41131;42.990;21.954;2022-10-16T11:55:35;19.73;;;13.43;;
55268;SDS011;41131;42.990;21.954;2022-10-16T11:58:06;28.00;;;20.88;;
55268;SDS011;41131;42.990;21.954;2022-10-16T12:05:51;34.25;;;23.10;;
55268;SDS011;41131;42.990;21.954;2022-10-16T12:08:18;11.20;;;8.02;;
55268;SDS011;41131;42.990;21.954;2022-10-16T12:10:45;11.23;;;8.30;;
55268;SDS011;41131;42.990;21.954;2022-10-16T12:13:28;19.83;;;8.15;;
55268;SDS011;41131;42.990;21.954;2022-10-16T12:16:19;16.40;;;8.65;;
55268;SDS011;41131;42.990;21.954;2022-10-16T12:18:46;10.20;;;7.50;;
55268;SDS011;41131;42.990;21.954;2022-10-16T12:21:13;9.15;;;7.80;;
55268;SDS011;41131;42.990;21.954;2022-10-16T12:26:12;10.25;;;6.60;;
55268;SDS011;41131;42.990;21.954;2022-10-16T12:28:38;17.25;;;10.00;;
55268;SDS011;41131;42.990;21.954;2022-10-16T12:31:06;15.43;;;7.40;;
55268;SDS011;41131;42.990;21.954;2022-10-16T12:33:37;9.80;;;7.20;;
55268;SDS011;41131;42.990;21.954;2022-10-16T12:36:16;32.60;;;13.60;;
55268;SDS011;41131;42.990;21.954;2022-10-16T12:38:52;13.32;;;8.63;;
55268;SDS011;41131;42.990;21.954;2022-10-16T12:43:51;10.68;;;6.45;;
55268;SDS011;41131;42.990;21.954;2022-10-16T12:48:44;14.95;;;9.90;;
55268;SDS011;41131;42.990;21.954;2022-10-16T12:51:25;20.23;;;12.85;;
55268;SDS011;41131;42.990;21.954;2022-10-16T12:54:01;16.27;;;11.82;;
55268;SDS011;41131;42.990;21.954;2022-10-16T12:56:37;10.18;;;8.38;;
55268;SDS011;41131;42.990;21.954;2022-10-16T13:17:08;12.60;;;7.07;;
55268;SDS011;41131;42.990;21.954;2022-10-16T13:35:24;13.95;;;6.63;;
55268;SDS011;41131;42.990;21.954;2022-10-16T13:37:51;14.32;;;10.63;;
55268;SDS011;41131;42.990;21.954;2022-10-16T13:40:18;17.60;;;13.00;;
55268;SDS011;41131;42.990;21.954;2022-10-16T13:42:45;13.23;;;7.90;;
55268;SDS011;41131;42.990;21.954;2022-10-16T13:45:20;13.98;;;10.45;;
55268;SDS011;41131;42.990;21.954;2022-10-16T13:47:47;13.00;;;11.05;;
55268;SDS011;41131;42.990;21.954;2022-10-16T13:50:15;27.35;;;24.15;;
55268;SDS011;41131;42.990;21.954;2022-10-16T13:52:41;18.52;;;14.88;;
55268;SDS011;41131;42.990;21.954;2022-10-16T13:57:37;10.25;;;5.63;;
55268;SDS011;41131;42.990;21.954;2022-10-16T14:00:03;16.58;;;9.88;;
55268;SDS011;41131;42.990;21.954;2022-10-16T14:02:42;10.93;;;7.88;;
55268;SDS011;41131;42.990;21.954;2022-10-16T14:05:08;30.17;;;23.30;;
55268;SDS011;41131;42.990;21.954;2022-10-16T14:07:35;25.48;;;19.55;;
55268;SDS011;41131;42.990;21.954;2022-10-16T14:10:04;31.10;;;23.27;;
55268;SDS011;41131;42.990;21.954;2022-10-16T14:12:30;6.40;;;4.45;;
55268;SDS011;41131;42.990;21.954;2022-10-16T14:14:57;15.68;;;11.60;;
55268;SDS011;41131;42.990;21.954;2022-10-16T14:17:24;11.57;;;9.93;;
55268;SDS011;41131;42.990;21.954;2022-10-16T14:19:55;14.43;;;9.25;;
55268;SDS011;41131;42.990;21.954;2022-10-16T14:24:50;23.50;;;17.58;;
55268;SDS011;41131;42.990;21.954;2022-10-16T14:27:28;12.85;;;9.27;;
55268;SDS011;41131;42.990;21.954;2022-10-16T14:30:05;12.02;;;9.55;;
55268;SDS011;41131;42.990;21.954;2022-10-16T14:32:34;12.07;;;9.73;;
55268;SDS011;41131;42.990;21.954;2022-10-16T14:35:00;134.90;;;24.77;;
55268;SDS011;41131;42.990;21.954;2022-10-16T14:37:27;33.13;;;11.68;;
55268;SDS011;41131;42.990;21.954;2022-10-16T14:39:54;62.63;;;13.68;;
55268;SDS011;41131;42.990;21.954;2022-10-16T14:42:21;31.70;;;10.40;;
55268;SDS011;41131;42.990;21.954;2022-10-16T14:44:49;16.02;;;7.88;;
55268;SDS011;41131;42.990;21.954;2022-10-16T14:47:18;55.97;;;14.80;;
55268;SDS011;41131;42.990;21.954;2022-10-16T14:49:49;25.23;;;10.43;;
55268;SDS011;41131;42.990;21.954;2022-10-16T14:52:15;18.73;;;8.95;;
55268;SDS011;41131;42.990;21.954;2022-10-16T14:54:42;30.77;;;13.55;;
55268;SDS011;41131;42.990;21.954;2022-10-16T14:57:15;39.28;;;19.67;;
55268;SDS011;41131;42.990;21.954;2022-10-16T14:59:42;15.88;;;10.80;;
55268;SDS011;41131;42.990;21.954;2022-10-16T15:04:43;21.60;;;14.32;;
55268;SDS011;41131;42.990;21.954;2022-10-16T15:07:09;16.02;;;12.93;;
55268;SDS011;41131;42.990;21.954;2022-10-16T15:09:36;20.98;;;15.85;;
55268;SDS011;41131;42.990;21.954;2022-10-16T15:12:02;21.80;;;16.08;;
55268;SDS011;41131;42.990;21.954;2022-10-16T15:14:28;30.50;;;20.08;;
55268;SDS011;41131;42.990;21.954;2022-10-16T15:16:54;56.47;;;41.97;;
55268;SDS011;41131;42.990;21.954;2022-10-16T15:19:20;39.00;;;31.90;;
55268;SDS011;41131;42.990;21.954;2022-10-16T15:21:46;65.03;;;42.63;;
55268;SDS011;41131;42.990;21.954;2022-10-16T15:24:14;49.72;;;40.10;;
55268;SDS011;41131;42.990;21.954;2022-10-16T15:26:40;57.17;;;45.95;;
55268;SDS011;41131;42.990;21.954;2022-10-16T15:29:06;57.85;;;43.65;;
55268;SDS011;41131;42.990;21.954;2022-10-16T15:31:33;54.58;;;42.55;;
55268;SDS011;41131;42.990;21.954;2022-10-16T15:33:59;55.15;;;41.22;;
55268;SDS011;41131;42.990;21.954;2022-10-16T15:36:33;49.20;;;38.58;;
55268;SDS011;41131;42.990;21.954;2022-10-16T15:39:01;68.85;;;43.58;;
55268;SDS011;41131;42.990;21.954;2022-10-16T15:41:27;71.00;;;54.70;;
55268;SDS011;41131;42.990;21.954;2022-10-16T15:43:54;80.60;;;58.22;;
55268;SDS011;41131;42.990;21.954;2022-10-16T15:46:20;94.43;;;72.30;;
55268;SDS011;41131;42.990;21.954;2022-10-16T15:48:47;99.03;;;78.22;;
55268;SDS011;41131;42.990;21.954;2022-10-16T15:51:13;91.70;;;71.75;;
55268;SDS011;41131;42.990;21.954;2022-10-16T15:53:40;97.03;;;74.65;;
55268;SDS011;41131;42.990;21.954;2022-10-16T15:56:06;91.40;;;71.95;;
55268;SDS011;41131;42.990;21.954;2022-10-16T15:58:33;88.57;;;71.80;;
55268;SDS011;41131;42.990;21.954;2022-10-16T16:01:00;88.70;;;69.05;;
55268;SDS011;41131;42.990;21.954;2022-10-16T16:03:27;92.95;;;72.03;;
55268;SDS011;41131;42.990;21.954;2022-10-16T16:05:53;92.18;;;72.68;;
55268;SDS011;41131;42.990;21.954;2022-10-16T16:08:19;108.50;;;88.85;;
55268;SDS011;41131;42.990;21.954;2022-10-16T16:10:56;110.30;;;94.68;;
55268;SDS011;41131;42.990;21.954;2022-10-16T16:13:22;130.88;;;104.65;;
55268;SDS011;41131;42.990;21.954;2022-10-16T16:15:48;128.77;;;105.53;;
55268;SDS011;41131;42.990;21.954;2022-10-16T16:18:14;107.55;;;87.82;;
55268;SDS011;41131;42.990;21.954;2022-10-16T16:20:40;108.80;;;85.53;;
55268;SDS011;41131;42.990;21.954;2022-10-16T16:23:06;101.50;;;83.22;;
55268;SDS011;41131;42.990;21.954;2022-10-16T16:25:33;113.82;;;88.50;;
55268;SDS011;41131;42.990;21.954;2022-10-16T16:27:59;156.30;;;119.82;;
55268;SDS011;41131;42.990;21.954;2022-10-16T16:30:25;139.60;;;111.35;;
55268;SDS011;41131;42.990;21.954;2022-10-16T16:32:51;117.55;;;92.32;;
55268;SDS011;41131;42.990;21.954;2022-10-16T16:35:17;114.80;;;79.70;;